Time;durP1;ratioP1;P1;durP2;ratioP2;P2;SDS_P1;SDS_P2;PMS_P1;PMS_P2;Temp;Humidity;BMP_temperature;BMP_pressure;BME280_temperature;BME280_humidity;BME280_pressure;Samples;Min_cycle;Max_cycle;Signal;HPM_P1;HPM_P2
2023/03/15 06:02:34;;;;;;;;;7.00;4.67;;;;;-147.14;100.00;58812.66;4935811;26;45302;-61
2023/03/15 06:05:00;;;;;;;;;7.00;6.33;;;;;-147.14;100.00;58812.66;4960115;28;45581;-62
2023/03/15 06:07:25;;;;;;;;;9.67;8.00;;;;;-147.14;100.00;58812.66;4960570;28;62044;-62
2023/03/15 06:09:51;;;;;;;;;4.00;4.00;;;;;-147.14;100.00;58812.66;4961298;28;45204;-61
2023/03/15 06:12:16;;;;;;;;;9.00;5.33;;;;;-147.14;100.00;58812.66;4957659;28;45439;-61
2023/03/15 06:14:41;;;;;;;;;10.67;9.00;;;;;-147.14;100.00;58812.66;4960198;28;64336;-61
2023/03/15 06:17:07;;;;;;;;;5.33;5.33;;;;;-147.14;100.00;58812.66;4957149;28;70435;-61
2023/03/15 06:19:32;;;;;;;;;10.67;8.33;;;;;-147.14;100.00;58812.66;4960138;28;66909;-61
2023/03/15 06:21:57;;;;;;;;;8.33;8.33;;;;;-147.14;100.00;58812.66;4956988;28;71445;-62
2023/03/15 06:24:23;;;;;;;;;7.33;4.67;;;;;-147.14;100.00;58812.66;4946736;28;45283;-61
2023/03/15 06:26:49;;;;;;;;;16.00;9.33;;;;;-147.14;100.00;58812.66;4961082;28;45584;-62
2023/03/15 06:29:16;;;;;;;;;11.33;9.67;;;;;-147.14;100.00;58812.66;4956482;28;74176;-62
2023/03/15 06:31:41;;;;;;;;;9.67;8.00;;;;;-147.14;100.00;58812.66;4956808;28;45507;-63
2023/03/15 06:34:07;;;;;;;;;8.67;8.33;;;;;-147.14;100.00;58812.66;4953905;28;45471;-61
2023/03/15 06:36:33;;;;;;;;;14.33;10.67;;;;;-147.14;100.00;58812.66;4942203;28;45551;-60
2023/03/15 06:38:58;;;;;;;;;10.00;9.00;;;;;-147.14;100.00;58812.66;4956956;28;45423;-60
2023/03/15 06:41:24;;;;;;;;;4.67;3.00;;;;;-147.14;100.00;58812.66;4958044;28;73214;-61
2023/03/15 06:43:49;;;;;;;;;9.00;9.00;;;;;-147.14;100.00;58812.66;4956888;28;45746;-61
2023/03/15 06:46:14;;;;;;;;;12.33;11.67;;;;;-147.14;100.00;58812.66;4955654;28;45611;-61
2023/03/15 06:48:40;;;;;;;;;10.00;6.33;;;;;-147.14;100.00;58812.66;4957461;28;63423;-61
2023/03/15 06:51:05;;;;;;;;;9.67;8.33;;;;;-147.14;100.00;58812.66;4961112;28;45610;-61
2023/03/15 06:53:31;;;;;;;;;10.67;9.00;;;;;-147.14;100.00;58812.66;4958033;28;58087;-61
2023/03/15 06:55:56;;;;;;;;;10.00;8.00;;;;;-147.14;100.00;58812.66;4956880;28;45614;-61
2023/03/15 06:58:21;;;;;;;;;9.33;9.33;;;;;-147.14;100.00;58812.66;4957294;28;71319;-61
2023/03/15 07:00:48;;;;;;;;;11.33;10.00;;;;;-147.14;100.00;58812.66;4957557;28;71446;-62
2023/03/15 07:03:13;;;;;;;;;9.33;8.67;;;;;-147.14;100.00;58812.66;4959647;28;45524;-62
2023/03/15 07:05:39;;;;;;;;;13.67;10.67;;;;;-147.14;100.00;58812.66;4959085;28;65495;-62
2023/03/15 07:08:04;;;;;;;;;10.33;10.00;;;;;-147.14;100.00;58812.66;4960773;28;46201;-63
2023/03/15 07:10:30;;;;;;;;;11.00;9.67;;;;;-147.14;100.00;58812.66;4960892;28;45467;-62
2023/03/15 07:12:55;;;;;;;;;8.67;7.33;;;;;-147.14;100.00;58812.66;4959290;28;54826;-63
2023/03/15 07:15:20;;;;;;;;;7.00;7.00;;;;;-147.14;100.00;58812.66;4940691;28;69015;-62
2023/03/15 07:17:46;;;;;;;;;12.33;7.00;;;;;-147.14;100.00;58812.66;4958827;28;56845;-61
2023/03/15 07:20:11;;;;;;;;;8.67;8.00;;;;;-147.14;100.00;58812.66;4959394;28;66600;-71
2023/03/15 07:22:37;;;;;;;;;9.33;8.33;;;;;-147.14;100.00;58812.66;4958879;28;48643;-70
2023/03/15 07:25:03;;;;;;;;;13.67;10.00;;;;;-147.14;100.00;58812.66;4959781;28;45538;-70
2023/03/15 07:27:29;;;;;;;;;11.00;6.00;;;;;-147.14;100.00;58812.66;4963513;28;45973;-70
2023/03/15 07:29:54;;;;;;;;;10.67;6.67;;;;;-147.14;100.00;58812.66;4960039;28;45580;-70
2023/03/15 07:32:20;;;;;;;;;11.00;9.00;;;;;-147.14;100.00;58812.66;4960568;28;45256;-70
2023/03/15 07:34:45;;;;;;;;;8.67;7.33;;;;;-147.14;100.00;58812.66;4966441;28;68435;-70
2023/03/15 07:37:10;;;;;;;;;12.33;10.67;;;;;-147.14;100.00;58812.66;4969946;28;75075;-70
2023/03/15 07:39:36;;;;;;;;;5.67;5.67;;;;;-147.14;100.00;58812.66;4959464;28;45569;-68
2023/03/15 07:42:01;;;;;;;;;13.67;9.33;;;;;-147.14;100.00;58812.66;4958571;28;56458;-70
2023/03/15 07:44:26;;;;;;;;;6.00;5.67;;;;;-147.14;100.00;58812.66;4957676;28;67626;-70
2023/03/15 07:46:53;;;;;;;;;7.00;7.00;;;;;-147.14;100.00;58812.66;4951794;28;65725;-70
2023/03/15 07:49:19;;;;;;;;;6.33;6.33;;;;;-147.14;100.00;58812.66;4956626;28;45386;-70
2023/03/15 07:51:44;;;;;;;;;10.00;8.00;;;;;-147.14;100.00;58812.66;4955381;28;66618;-71
2023/03/15 07:54:09;;;;;;;;;8.33;6.00;;;;;-147.14;100.00;58812.66;4958036;28;59739;-71
2023/03/15 07:56:35;;;;;;;;;9.33;8.00;;;;;-147.14;100.00;58812.66;4958457;28;48523;-71
2023/03/15 07:59:00;;;;;;;;;20.67;18.33;;;;;-147.14;100.00;58812.66;4957923;28;45464;-71
2023/03/15 08:01:26;;;;;;;;;13.00;11.00;;;;;-147.14;100.00;58812.66;4953656;28;61617;-71
2023/03/15 08:03:51;;;;;;;;;6.00;5.33;;;;;-147.14;100.00;58812.66;4956982;28;45354;-71
2023/03/15 08:06:16;;;;;;;;;12.00;7.00;;;;;-147.14;100.00;58812.66;4954442;28;73739;-71
2023/03/15 08:08:42;;;;;;;;;10.00;10.00;;;;;-147.14;100.00;58812.66;4955299;28;71399;-70
2023/03/15 08:11:07;;;;;;;;;9.67;8.33;;;;;-147.14;100.00;58812.66;4953853;28;45520;-69
2023/03/15 08:13:32;;;;;;;;;6.00;6.00;;;;;-147.14;100.00;58812.66;4952738;28;69273;-70
2023/03/15 08:15:58;;;;;;;;;6.67;5.67;;;;;-147.14;100.00;58812.66;4955878;28;45773;-70
2023/03/15 08:18:23;;;;;;;;;6.00;5.00;;;;;-147.14;100.00;58812.66;4938724;28;45331;-70
2023/03/15 08:20:49;;;;;;;;;9.00;8.00;;;;;-147.14;100.00;58812.66;4954221;28;45485;-71
2023/03/15 08:23:15;;;;;;;;;6.33;5.33;;;;;-147.14;100.00;58812.66;4941412;28;45465;-72
2023/03/15 08:25:41;;;;;;;;;10.00;6.67;;;;;-147.14;100.00;58812.66;4958397;28;45530;-71
2023/03/15 08:28:06;;;;;;;;;14.00;7.00;;;;;-147.14;100.00;58812.66;4954488;28;45396;-70
2023/03/15 08:30:31;;;;;;;;;9.67;8.00;;;;;-147.14;100.00;58812.66;4956468;28;45413;-71
2023/03/15 08:32:57;;;;;;;;;11.33;7.33;;;;;-147.14;100.00;58812.66;4956702;28;53550;-71
2023/03/15 08:35:22;;;;;;;;;12.00;8.67;;;;;-147.14;100.00;58812.66;4956516;28;45388;-71
2023/03/15 08:37:48;;;;;;;;;11.00;9.33;;;;;-147.14;100.00;58812.66;4957200;28;70169;-71
2023/03/15 08:40:15;;;;;;;;;7.00;7.00;;;;;-147.14;100.00;58812.66;4957950;28;66192;-71
2023/03/15 08:42:40;;;;;;;;;6.00;5.33;;;;;-147.14;100.00;58812.66;4957605;28;45452;-71
2023/03/15 08:45:07;;;;;;;;;5.00;5.00;;;;;-147.14;100.00;58812.66;4956613;28;45950;-71
2023/03/15 08:47:36;;;;;;;;;4.00;4.00;;;;;-147.14;100.00;58812.66;4956812;28;45436;-71
2023/03/15 08:50:04;;;;;;;;;3.33;3.33;;;;;-147.14;100.00;58812.66;4958830;28;45387;-71
2023/03/15 08:52:30;;;;;;;;;5.67;5.67;;;;;-147.14;100.00;58812.66;4957591;28;45552;-71
2023/03/15 08:54:55;;;;;;;;;5.00;5.00;;;;;-147.14;100.00;58812.66;4957080;28;46618;-71
2023/03/15 08:57:24;;;;;;;;;6.00;6.00;;;;;-147.14;100.00;58812.66;4956723;28;59023;-71
2023/03/15 08:59:50;;;;;;;;;5.33;4.00;;;;;-147.14;100.00;58812.66;4957265;28;45468;-72
2023/03/15 09:02:15;;;;;;;;;4.00;4.00;;;;;-147.14;100.00;58812.66;4958831;28;45660;-71
2023/03/15 09:04:40;;;;;;;;;7.33;6.00;;;;;-147.14;100.00;58812.66;4956026;28;71728;-71
2023/03/15 09:07:06;;;;;;;;;5.00;5.00;;;;;-147.14;100.00;58812.66;4957991;28;70371;-71
2023/03/15 09:09:32;;;;;;;;;8.00;4.00;;;;;-147.14;100.00;58812.66;4961378;28;45682;-71
2023/03/15 09:11:57;;;;;;;;;8.00;5.00;;;;;-147.14;100.00;58812.66;4961047;28;45310;-71
2023/03/15 09:14:23;;;;;;;;;5.00;5.00;;;;;-147.14;100.00;58812.66;4959370;28;45856;-72
2023/03/15 09:16:48;;;;;;;;;3.00;3.00;;;;;-147.14;100.00;58812.66;4949508;28;50616;-71
2023/03/15 09:19:13;;;;;;;;;5.33;4.33;;;;;-147.14;100.00;58812.66;4958549;28;65007;-72
2023/03/15 09:21:39;;;;;;;;;6.67;3.67;;;;;-147.14;100.00;58812.66;4954563;28;45342;-72
2023/03/15 09:24:04;;;;;;;;;6.67;5.00;;;;;-147.14;100.00;58812.66;4959703;28;45541;-71
2023/03/15 09:26:30;;;;;;;;;3.00;3.00;;;;;-147.14;100.00;58812.66;4960402;28;45361;-72
2023/03/15 09:28:55;;;;;;;;;4.67;4.00;;;;;-147.14;100.00;58812.66;4948141;28;65436;-71
2023/03/15 09:31:20;;;;;;;;;8.00;4.00;;;;;-147.14;100.00;58812.66;4953989;28;69421;-72
2023/03/15 09:33:46;;;;;;;;;4.00;3.33;;;;;-147.14;100.00;58812.66;4959495;28;73748;-72
2023/03/15 09:36:11;;;;;;;;;5.00;3.33;;;;;-147.14;100.00;58812.66;4961862;28;45458;-73
2023/03/15 09:38:36;;;;;;;;;3.33;2.33;;;;;-147.14;100.00;58812.66;4961993;28;45377;-73
2023/03/15 09:41:02;;;;;;;;;3.33;3.33;;;;;-147.14;100.00;58812.66;4960464;28;45441;-73
2023/03/15 09:43:42;;;;;;;;;5.67;5.00;;;;;-147.14;100.00;58812.66;4959651;28;45794;-74
2023/03/15 09:46:08;;;;;;;;;9.33;4.33;;;;;-147.14;100.00;58812.66;4957819;28;45440;-74
2023/03/15 09:48:42;;;;;;;;;2.67;2.67;;;;;-147.14;100.00;58812.66;4958462;28;45326;-74
2023/03/15 09:51:30;;;;;;;;;5.00;3.67;;;;;-147.14;100.00;58812.66;4960109;28;45613;-74
2023/03/15 09:54:07;;;;;;;;;4.00;2.67;;;;;-147.14;100.00;58812.66;4958322;28;45774;-73
2023/03/15 09:56:44;;;;;;;;;8.00;4.00;;;;;-147.14;100.00;58812.66;4959572;28;46217;-75
2023/03/15 09:59:10;;;;;;;;;4.00;1.67;;;;;-147.14;100.00;58812.66;4958687;28;45667;-76
2023/03/15 10:01:38;;;;;;;;;5.67;4.00;;;;;-147.14;100.00;58812.66;4959678;28;45865;-76
2023/03/15 10:04:23;;;;;;;;;3.67;2.67;;;;;-147.14;100.00;58812.66;4955983;28;45416;-77
2023/03/15 10:06:54;;;;;;;;;2.33;2.33;;;;;-147.14;100.00;58812.66;4954632;28;45298;-76
2023/03/15 10:09:22;;;;;;;;;4.00;4.00;;;;;-147.14;100.00;58812.66;4959774;28;45369;-77
2023/03/15 10:11:50;;;;;;;;;6.33;3.33;;;;;-147.14;100.00;58812.66;4958759;28;45688;-77
2023/03/15 10:14:18;;;;;;;;;2.50;1.50;;;;;-147.14;100.00;58812.66;4960759;28;45458;-77
2023/03/15 10:16:48;;;;;;;;;2.50;2.50;;;;;-147.14;100.00;58812.66;4960594;28;45381;-77
2023/03/15 10:19:31;;;;;;;;;7.33;3.67;;;;;-147.14;100.00;58812.66;4960478;28;46462;-78
2023/03/15 10:22:11;;;;;;;;;5.00;2.00;;;;;-147.14;100.00;58812.66;4956738;28;45376;-80
2023/03/15 10:24:50;;;;;;;;;5.50;3.75;;;;;-147.14;100.00;58812.66;4961395;28;45453;-80
2023/03/15 10:27:21;;;;;;;;;4.50;3.25;;;;;-147.14;100.00;58812.66;4949513;28;45647;-80
2023/03/15 10:29:52;;;;;;;;;12.33;9.33;;;;;-147.14;100.00;58812.66;4976109;28;45353;-77
2023/03/15 10:32:21;;;;;;;;;7.25;5.00;;;;;-147.14;100.00;58812.66;4974867;28;45410;-81
2023/03/15 10:34:55;;;;;;;;;8.67;7.67;;;;;-147.14;100.00;58812.66;4960261;28;45749;-78
2023/03/15 10:37:22;;;;;;;;;6.00;3.75;;;;;-147.14;100.00;58812.66;4958928;28;45365;-77
2023/03/15 10:39:56;;;;;;;;;3.50;3.00;;;;;-147.14;100.00;58812.66;4957947;28;45369;-78
2023/03/15 10:42:29;;;;;;;;;6.00;3.75;;;;;-147.14;100.00;58812.66;4943628;28;45516;-78
2023/03/15 10:44:55;;;;;;;;;3.50;2.25;;;;;-147.14;100.00;58812.66;4960272;28;45973;-77
2023/03/15 10:47:21;;;;;;;;;2.50;2.25;;;;;-147.14;100.00;58812.66;4942936;28;46124;-78
2023/03/15 10:49:47;;;;;;;;;2.25;0.75;;;;;-147.14;100.00;58812.66;4958071;28;45493;-77
2023/03/15 10:52:38;;;;;;;;;1.25;1.25;;;;;-147.14;100.00;58812.66;4962848;28;45516;-77
2023/03/15 10:55:05;;;;;;;;;3.00;1.75;;;;;-147.14;100.00;58812.66;4948577;28;45563;-77
2023/03/15 10:57:34;;;;;;;;;2.75;1.75;;;;;-147.14;100.00;58812.66;4958988;28;45349;-77
2023/03/15 11:00:05;;;;;;;;;1.50;1.00;;;;;-147.14;100.00;58812.66;4958954;28;45421;-78
2023/03/15 11:02:31;;;;;;;;;3.50;1.75;;;;;-147.14;100.00;58812.66;4952321;28;45686;-76
2023/03/15 11:05:11;;;;;;;;;1.25;1.00;;;;;-147.14;100.00;58812.66;4957418;28;46206;-76
2023/03/15 11:07:36;;;;;;;;;4.00;2.75;;;;;-147.14;100.00;58812.66;4955163;28;45342;-76
2023/03/15 11:10:05;;;;;;;;;3.50;2.50;;;;;-147.14;100.00;58812.66;4958499;28;63988;-75
2023/03/15 11:12:32;;;;;;;;;10.00;9.00;;;;;-147.14;100.00;58812.66;4953909;28;45350;-75
2023/03/15 11:15:06;;;;;;;;;4.75;1.50;;;;;-147.14;100.00;58812.66;4956915;28;46280;-75
2023/03/15 11:17:35;;;;;;;;;1.50;1.50;;;;;-147.14;100.00;58812.66;4960546;28;45565;-75
2023/03/15 11:20:19;;;;;;;;;4.75;2.75;;;;;-147.14;100.00;58812.66;4962468;28;45279;-75
2023/03/15 11:22:45;;;;;;;;;1.25;1.00;;;;;-147.14;100.00;58812.66;4963086;28;45540;-76
2023/03/15 11:25:15;;;;;;;;;4.00;2.50;;;;;-147.14;100.00;58812.66;4961580;28;60661;-75
2023/03/15 11:27:42;;;;;;;;;3.25;2.75;;;;;-147.14;100.00;58812.66;4943155;28;45872;-75
2023/03/15 11:30:15;;;;;;;;;6.25;3.00;;;;;-147.14;100.00;58812.66;4956689;28;46833;-74
2023/03/15 11:32:40;;;;;;;;;4.50;3.00;;;;;-147.14;100.00;58812.66;4959485;28;45310;-74
2023/03/15 11:35:12;;;;;;;;;2.75;2.00;;;;;-147.14;100.00;58812.66;4948573;28;57262;-74
2023/03/15 11:37:46;;;;;;;;;3.00;1.00;;;;;-147.14;100.00;58812.66;4963191;28;45307;-74
2023/03/15 11:40:15;;;;;;;;;1.00;1.00;;;;;-147.14;100.00;58812.66;4959316;28;45311;-74
2023/03/15 11:42:55;;;;;;;;;8.00;3.00;;;;;-147.14;100.00;58812.66;4957643;28;45461;-74
2023/03/15 11:45:38;;;;;;;;;2.25;1.25;;;;;-147.14;100.00;58812.66;4958925;28;45440;-74
2023/03/15 11:48:20;;;;;;;;;1.00;1.00;;;;;-147.14;100.00;58812.66;4970775;28;45958;-73
2023/03/15 11:50:46;;;;;;;;;1.00;1.00;;;;;-147.14;100.00;58812.66;4956289;28;45470;-73
2023/03/15 11:53:14;;;;;;;;;2.75;1.00;;;;;-147.14;100.00;58812.66;4936461;28;70482;-72
2023/03/15 11:55:39;;;;;;;;;3.25;2.00;;;;;-147.14;100.00;58812.66;4938281;28;47133;-74
2023/03/15 11:58:30;;;;;;;;;1.50;0.75;;;;;-147.14;100.00;58812.66;4956759;28;69623;-74
2023/03/15 12:01:00;;;;;;;;;1.00;1.00;;;;;-147.14;100.00;58812.66;4956866;28;45491;-74
2023/03/15 12:03:43;;;;;;;;;1.00;1.00;;;;;-147.14;100.00;58812.66;4957648;28;45306;-72
2023/03/15 12:06:17;;;;;;;;;4.67;2.67;;;;;-147.14;100.00;58812.66;4957939;28;45688;-72
2023/03/15 12:08:53;;;;;;;;;1.50;1.50;;;;;-147.14;100.00;58812.66;4959538;28;45318;-72
2023/03/15 12:11:19;;;;;;;;;4.00;2.00;;;;;-147.14;100.00;58812.66;4963352;28;45512;-72
2023/03/15 12:14:00;;;;;;;;;1.00;1.00;;;;;-147.14;100.00;58812.66;4962490;28;45324;-72
2023/03/15 12:16:28;;;;;;;;;2.00;1.00;;;;;-147.14;100.00;58812.66;4955502;28;47207;-71
2023/03/15 12:18:57;;;;;;;;;1.00;1.00;;;;;-147.14;100.00;58812.66;4962150;28;45733;-72
2023/03/15 12:21:31;;;;;;;;;2.33;1.00;;;;;-147.14;100.00;58812.66;4959990;28;45787;-72
2023/03/15 12:24:00;;;;;;;;;1.00;1.00;;;;;-147.14;100.00;58812.66;4940909;28;45429;-72
2023/03/15 12:26:44;;;;;;;;;1.00;1.00;;;;;-147.14;100.00;58812.66;4940622;28;45484;-73
2023/03/15 12:29:23;;;;;;;;;4.67;4.00;;;;;-147.14;100.00;58812.66;4947068;28;45502;-72
2023/03/15 12:32:02;;;;;;;;;5.00;1.00;;;;;-147.14;100.00;58812.66;4957280;28;45485;-71
2023/03/15 12:34:41;;;;;;;;;1.00;1.00;;;;;-147.14;100.00;58812.66;4956460;28;45772;-71
2023/03/15 12:37:12;;;;;;;;;2.00;2.00;;;;;-147.14;100.00;58812.66;4948038;28;48507;-70
2023/03/15 12:39:42;;;;;;;;;1.00;1.00;;;;;-147.14;100.00;58812.66;4958188;28;46007;-71
2023/03/15 12:42:13;;;;;;;;;2.00;2.00;;;;;-147.14;100.00;58812.66;4966706;28;45784;-71
2023/03/15 12:44:42;;;;;;;;;2.00;2.00;;;;;-147.14;100.00;58812.66;4963829;28;45586;-69
2023/03/15 12:47:09;;;;;;;;;2.00;2.00;;;;;-147.14;100.00;58812.66;4947485;28;47112;-71
2023/03/15 12:49:34;;;;;;;;;1.00;1.00;;;;;-147.14;100.00;58812.66;4940912;28;45364;-71
2023/03/15 12:52:24;;;;;;;;;2.00;1.33;;;;;-147.14;100.00;58812.66;4956384;28;45489;-69
2023/03/15 12:54:56;;;;;;;;;3.00;2.00;;;;;-147.14;100.00;58812.66;4956797;28;45506;-70
2023/03/15 12:57:25;;;;;;;;;3.00;2.33;;;;;-147.14;100.00;58812.66;4963076;28;47947;-70
2023/03/15 12:59:56;;;;;;;;;6.00;4.00;;;;;-147.14;100.00;58812.66;4955555;28;45538;-70
2023/03/15 13:02:29;;;;;;;;;3.67;2.00;;;;;-147.14;100.00;58812.66;4964922;28;45712;-71
2023/03/15 13:05:16;;;;;;;;;5.00;1.00;;;;;-147.14;100.00;58812.66;4954421;28;45514;-70
2023/03/15 13:08:11;;;;;;;;;1.00;1.00;;;;;-147.14;100.00;58812.66;4962267;28;46878;-70
2023/03/15 13:10:50;;;;;;;;;1.00;1.00;;;;;-147.14;100.00;58812.66;4963273;28;45440;-70
2023/03/15 13:13:37;;;;;;;;;2.00;2.00;;;;;-147.14;100.00;58812.66;4964453;28;45380;-70
2023/03/15 13:16:18;;;;;;;;;3.00;1.00;;;;;-147.14;100.00;58812.66;4933380;28;45661;-70
2023/03/15 13:19:15;;;;;;;;;4.33;1.33;;;;;-147.14;100.00;58812.66;4953200;28;46245;-70
2023/03/15 13:22:23;;;;;;;;;1.00;1.00;;;;;-147.14;100.00;58812.66;4941209;28;45547;-70
2023/03/15 13:25:08;;;;;;;;;2.00;0.33;;;;;-147.14;100.00;58812.66;4940960;28;45493;-70
2023/03/15 13:28:02;;;;;;;;;1.00;0.00;;;;;-147.14;100.00;58812.66;4956493;28;45647;-70
2023/03/15 13:30:50;;;;;;;;;1.00;1.00;;;;;-147.14;100.00;58812.66;4939857;28;46905;-70
2023/03/15 13:33:23;;;;;;;;;1.33;1.00;;;;;-147.14;100.00;58812.66;4945712;28;45558;-70
2023/03/15 13:36:02;;;;;;;;;2.00;2.00;;;;;-147.14;100.00;58812.66;4939989;28;45486;-71
2023/03/15 13:38:43;;;;;;;;;3.00;2.00;;;;;-147.14;100.00;58812.66;4967810;28;45445;-70
2023/03/15 13:41:21;;;;;;;;;2.00;1.67;;;;;-147.14;100.00;58812.66;4944640;28;47744;-70
2023/03/15 13:43:48;;;;;;;;;4.00;1.00;;;;;-147.14;100.00;58812.66;4953772;28;45681;-70
2023/03/15 13:46:14;;;;;;;;;1.00;1.00;;;;;-147.14;100.00;58812.66;4943324;28;45300;-70
2023/03/15 13:48:41;;;;;;;;;1.00;1.00;;;;;-147.14;100.00;58812.66;4940738;28;45590;-70
2023/03/15 13:51:14;;;;;;;;;1.00;1.00;;;;;-147.14;100.00;58812.66;4956802;28;45358;-70
2023/03/15 13:53:40;;;;;;;;;1.67;1.00;;;;;-147.14;100.00;58812.66;4963242;28;45580;-70
2023/03/15 13:56:07;;;;;;;;;1.33;1.00;;;;;-147.14;100.00;58812.66;4963457;28;45419;-70
2023/03/15 13:58:32;;;;;;;;;1.67;1.67;;;;;-147.14;100.00;58812.66;4967298;28;45597;-70
2023/03/15 14:00:59;;;;;;;;;3.67;2.00;;;;;-147.14;100.00;58812.66;4963058;28;66831;-70
2023/03/15 14:03:26;;;;;;;;;4.00;1.00;;;;;-147.14;100.00;58812.66;4959864;28;45722;-70
2023/03/15 14:05:53;;;;;;;;;1.00;1.00;;;;;-147.14;100.00;58812.66;4958434;28;45681;-70
2023/03/15 14:08:28;;;;;;;;;5.00;2.00;;;;;-147.14;100.00;58812.66;4964573;28;45459;-70
2023/03/15 14:11:17;;;;;;;;;3.00;1.67;;;;;-147.14;100.00;58812.66;4942223;28;47187;-69
2023/03/15 14:13:50;;;;;;;;;2.00;0.00;;;;;-147.14;100.00;58812.66;4958736;28;45620;-69
2023/03/15 14:16:30;;;;;;;;;1.00;1.00;;;;;-147.14;100.00;58812.66;4961358;28;45574;-70
2023/03/15 14:19:07;;;;;;;;;2.00;2.00;;;;;-147.14;100.00;58812.66;4958503;28;45642;-70
2023/03/15 14:21:32;;;;;;;;;3.00;2.00;;;;;-147.14;100.00;58812.66;4958878;28;46093;-69
2023/03/15 14:24:05;;;;;;;;;2.00;2.00;;;;;-147.14;100.00;58812.66;4959328;28;64686;-68
2023/03/15 14:26:30;;;;;;;;;1.00;1.00;;;;;-147.14;100.00;58812.66;4936582;28;45465;-69
2023/03/15 14:28:58;;;;;;;;;1.00;1.00;;;;;-147.14;100.00;58812.66;4957888;28;45505;-69
2023/03/15 14:31:26;;;;;;;;;2.00;2.00;;;;;-147.14;100.00;58812.66;4947988;28;48480;-69
2023/03/15 14:34:15;;;;;;;;;1.00;1.00;;;;;-147.14;100.00;58812.66;4959464;28;46134;-71
2023/03/15 14:36:43;;;;;;;;;1.00;1.00;;;;;-147.14;100.00;58812.66;4955645;28;45527;-70
2023/03/15 14:39:36;;;;;;;;;1.00;1.00;;;;;-147.14;100.00;58812.66;4960457;28;45373;-71
2023/03/15 14:42:01;;;;;;;;;1.00;1.00;;;;;-147.14;100.00;58812.66;4957296;28;45565;-73
2023/03/15 14:44:27;;;;;;;;;2.00;0.67;;;;;-147.14;100.00;58812.66;4979816;28;45330;-70
2023/03/15 14:46:52;;;;;;;;;2.00;1.00;;;;;-147.14;100.00;58812.66;4962517;28;60742;-71
2023/03/15 14:49:23;;;;;;;;;0.67;0.00;;;;;-147.14;100.00;58812.66;4963365;28;62721;-72
2023/03/15 14:51:54;;;;;;;;;0.67;0.67;;;;;-147.14;100.00;58812.66;4942045;28;47082;-73
2023/03/15 14:54:19;;;;;;;;;3.00;3.00;;;;;-147.14;100.00;58812.66;4958178;28;45408;-71
2023/03/15 14:56:44;;;;;;;;;1.67;1.00;;;;;-147.14;100.00;58812.66;4961567;28;45796;-69
2023/03/15 14:59:11;;;;;;;;;1.00;1.00;;;;;-147.14;100.00;58812.66;4958450;28;62421;-73
2023/03/15 15:01:39;;;;;;;;;0.00;0.00;;;;;-147.14;100.00;58812.66;4957118;28;46256;-71
2023/03/15 15:04:05;;;;;;;;;1.00;1.00;;;;;-147.14;100.00;58812.66;4960845;28;45259;-70
2023/03/15 15:06:31;;;;;;;;;2.67;0.67;;;;;-147.14;100.00;58812.66;4960704;28;45607;-70
2023/03/15 15:08:57;;;;;;;;;3.33;1.67;;;;;-147.14;100.00;58812.66;4959870;28;45271;-70
2023/03/15 15:11:23;;;;;;;;;0.67;0.33;;;;;-147.14;100.00;58812.66;4952254;28;46154;-70
2023/03/15 15:13:49;;;;;;;;;0.67;0.00;;;;;-147.14;100.00;58812.66;4957100;28;45361;-69
2023/03/15 15:16:14;;;;;;;;;1.00;1.00;;;;;-147.14;100.00;58812.66;4961349;28;45669;-69
2023/03/15 15:18:39;;;;;;;;;0.67;0.67;;;;;-147.14;100.00;58812.66;4953882;28;62244;-69
2023/03/15 15:21:13;;;;;;;;;0.67;0.67;;;;;-147.14;100.00;58812.66;4959008;28;69559;-70
2023/03/15 15:23:41;;;;;;;;;1.00;0.67;;;;;-147.14;100.00;58812.66;4957651;28;45465;-69
2023/03/15 15:26:13;;;;;;;;;1.00;1.00;;;;;-147.14;100.00;58812.66;4958976;28;45343;-69
2023/03/15 15:28:41;;;;;;;;;1.67;0.33;;;;;-147.14;100.00;58812.66;4951190;28;45279;-69
2023/03/15 15:31:06;;;;;;;;;1.67;1.67;;;;;-147.14;100.00;58812.66;4958393;28;45668;-69
2023/03/15 15:33:32;;;;;;;;;0.00;0.00;;;;;-147.14;100.00;58812.66;4958745;28;53931;-69
2023/03/15 15:35:58;;;;;;;;;2.67;2.00;;;;;-147.14;100.00;58812.66;4943008;28;45335;-69
2023/03/15 15:38:30;;;;;;;;;0.33;0.33;;;;;-147.14;100.00;58812.66;4959977;28;50233;-69
2023/03/15 15:40:56;;;;;;;;;1.33;1.00;;;;;-147.14;100.00;58812.66;4942491;28;47776;-68
2023/03/15 15:43:21;;;;;;;;;1.67;0.67;;;;;-147.14;100.00;58812.66;4960980;28;45368;-68
2023/03/15 15:45:47;;;;;;;;;2.33;0.67;;;;;-147.14;100.00;58812.66;4959568;28;54149;-68
2023/03/15 15:48:12;;;;;;;;;2.33;1.33;;;;;-147.14;100.00;58812.66;4959176;28;61514;-68
2023/03/15 15:50:37;;;;;;;;;1.00;1.00;;;;;-147.14;100.00;58812.66;4958803;28;61561;-68
2023/03/15 15:53:06;;;;;;;;;3.00;1.00;;;;;-147.14;100.00;58812.66;4957713;28;52719;-68
2023/03/15 15:55:33;;;;;;;;;0.67;0.67;;;;;-147.14;100.00;58812.66;4958571;28;45267;-68
2023/03/15 15:57:59;;;;;;;;;2.33;0.67;;;;;-147.14;100.00;58812.66;4958527;28;45255;-68
2023/03/15 16:00:26;;;;;;;;;1.00;0.67;;;;;-147.14;100.00;58812.66;4942112;28;47172;-68
2023/03/15 16:02:53;;;;;;;;;0.67;0.67;;;;;-147.14;100.00;58812.66;4959555;28;45436;-68
2023/03/15 16:05:20;;;;;;;;;0.67;0.67;;;;;-147.14;100.00;58812.66;4957614;28;45516;-68
2023/03/15 16:07:45;;;;;;;;;3.00;1.00;;;;;-147.14;100.00;58812.66;4941680;28;45545;-69
2023/03/15 16:10:23;;;;;;;;;1.00;1.00;;;;;-147.14;100.00;58812.66;4958525;28;72048;-68
2023/03/15 16:12:49;;;;;;;;;0.33;0.33;;;;;-147.14;100.00;58812.66;4958394;28;45318;-68
2023/03/15 16:15:16;;;;;;;;;3.00;1.67;;;;;-147.14;100.00;58812.66;4942704;28;45591;-68
2023/03/15 16:17:41;;;;;;;;;3.00;1.67;;;;;-147.14;100.00;58812.66;4959057;28;45401;-68
2023/03/15 16:20:08;;;;;;;;;2.00;1.00;;;;;-147.14;100.00;58812.66;4948822;28;45491;-68
2023/03/15 16:22:35;;;;;;;;;3.67;0.00;;;;;-147.14;100.00;58812.66;4958203;28;45336;-68
2023/03/15 16:25:00;;;;;;;;;1.00;1.00;;;;;-147.14;100.00;58812.66;4958288;28;45310;-68
2023/03/15 16:27:26;;;;;;;;;2.33;1.00;;;;;-147.14;100.00;58812.66;4940920;28;45263;-68
2023/03/15 16:29:53;;;;;;;;;2.00;1.00;;;;;-147.14;100.00;58812.66;4958108;28;45418;-68
2023/03/15 16:32:21;;;;;;;;;5.67;1.00;;;;;-147.14;100.00;58812.66;4959233;28;45422;-68
2023/03/15 16:34:47;;;;;;;;;1.00;1.00;;;;;-147.14;100.00;58812.66;4942633;28;45794;-68
2023/03/15 16:37:15;;;;;;;;;2.00;2.00;;;;;-147.14;100.00;58812.66;4958201;28;45659;-68
2023/03/15 16:39:47;;;;;;;;;1.67;1.33;;;;;-147.14;100.00;58812.66;4959003;28;45383;-68
2023/03/15 16:42:14;;;;;;;;;2.67;2.00;;;;;-147.14;100.00;58812.66;4957647;28;45470;-68
2023/03/15 16:44:39;;;;;;;;;1.00;1.00;;;;;-147.14;100.00;58812.66;4958569;28;45385;-68
2023/03/15 16:47:05;;;;;;;;;1.00;1.00;;;;;-147.14;100.00;58812.66;4958396;28;45516;-68
2023/03/15 16:49:31;;;;;;;;;2.67;1.00;;;;;-147.14;100.00;58812.66;4959078;28;45361;-68
2023/03/15 16:51:57;;;;;;;;;2.00;1.67;;;;;-147.14;100.00;58812.66;4957636;28;62215;-67
2023/03/15 16:54:22;;;;;;;;;4.67;2.67;;;;;-147.14;100.00;58812.66;4957892;28;45730;-68
2023/03/15 16:56:48;;;;;;;;;1.67;1.67;;;;;-147.14;100.00;58812.66;4956916;28;45287;-68
2023/03/15 16:59:15;;;;;;;;;1.67;1.00;;;;;-147.14;100.00;58812.66;4956807;28;64943;-68
2023/03/15 17:01:41;;;;;;;;;0.67;0.67;;;;;-147.14;100.00;58812.66;4959195;28;45429;-68
2023/03/15 17:04:06;;;;;;;;;1.67;0.00;;;;;-147.14;100.00;58812.66;4956888;28;45418;-68
2023/03/15 17:06:32;;;;;;;;;1.00;1.00;;;;;-147.14;100.00;58812.66;4957611;28;45524;-68
2023/03/15 17:09:03;;;;;;;;;3.00;1.00;;;;;-147.14;100.00;58812.66;4957484;28;45485;-68
2023/03/15 17:11:30;;;;;;;;;2.67;2.00;;;;;-147.14;100.00;58812.66;4957983;28;45339;-68
2023/03/15 17:13:57;;;;;;;;;1.00;1.00;;;;;-147.14;100.00;58812.66;4957394;28;45496;-68
2023/03/15 17:16:23;;;;;;;;;0.67;0.67;;;;;-147.14;100.00;58812.66;4958639;28;45379;-68
2023/03/15 17:18:48;;;;;;;;;2.33;1.67;;;;;-147.14;100.00;58812.66;4958153;28;45293;-68